createdAt,value
2022-09-15T00:02:59.328Z,77.02
2022-09-15T00:06:06.665Z,77.03
2022-09-15T00:09:12.462Z,76.92
2022-09-15T00:12:18.118Z,76.79
2022-09-15T00:15:25.154Z,76.62
2022-09-15T00:18:32.269Z,76.56
2022-09-15T00:21:41.490Z,76.51
2022-09-15T00:24:48.423Z,76.62
2022-09-15T00:27:54.521Z,76.76
2022-09-15T00:31:02.925Z,76.92
2022-09-15T00:34:11.644Z,77.13
2022-09-15T00:37:17.449Z,77.31
2022-09-15T00:40:24.502Z,77.44
2022-09-15T00:43:31.342Z,77.51
2022-09-15T00:46:41.966Z,77.48
2022-09-15T00:49:49.206Z,77.50
2022-09-15T00:53:06.215Z,77.56
2022-09-15T00:56:12.711Z,77.62
2022-09-15T00:59:21.342Z,77.69
2022-09-15T01:02:31.143Z,77.77
2022-09-15T01:05:43.542Z,77.77
2022-09-15T01:09:07.710Z,77.71
2022-09-15T01:12:14.809Z,77.75
2022-09-15T01:15:24.242Z,77.83
2022-09-15T01:19:18.279Z,77.95
2022-09-15T01:22:54.822Z,77.98
2022-09-15T01:26:21.594Z,77.89
2022-09-15T01:30:08.618Z,77.97
2022-09-15T01:33:38.045Z,78.04
2022-09-15T01:37:01.227Z,78.15
2022-09-15T01:40:08.676Z,78.20
2022-09-15T01:43:15.543Z,78.22
2022-09-15T01:46:20.975Z,78.16
2022-09-15T01:49:28.237Z,78.13
2022-09-15T01:52:36.166Z,78.13
2022-09-15T01:55:55.288Z,78.11
2022-09-15T01:59:02.976Z,78.08
2022-09-15T02:02:21.604Z,78.08
2022-09-15T02:05:37.750Z,78.04
2022-09-15T02:09:05.352Z,78.01
2022-09-15T02:12:38.910Z,77.98
2022-09-15T02:15:49.944Z,78.01
2022-09-15T02:19:00.685Z,78.11
2022-09-15T02:22:15.525Z,78.20
2022-09-15T02:25:27.512Z,78.25
2022-09-15T02:28:38.016Z,78.28
2022-09-15T02:31:43.745Z,78.26
2022-09-15T02:34:54.784Z,78.24
2022-09-15T02:38:01.111Z,78.19
2022-09-15T02:41:08.189Z,78.29
2022-09-15T02:44:13.595Z,78.41
2022-09-15T02:47:21.217Z,78.48
2022-09-15T02:50:26.989Z,78.51
2022-09-15T02:53:33.716Z,78.55
2022-09-15T02:56:39.915Z,78.64
2022-09-15T03:00:03.569Z,78.71
2022-09-15T03:03:08.217Z,78.78
2022-09-15T03:06:21.186Z,78.81
2022-09-15T03:09:26.984Z,78.72
2022-09-15T03:12:33.759Z,78.70
2022-09-15T03:15:40.849Z,78.73
2022-09-15T03:18:49.881Z,78.75
2022-09-15T03:21:56.199Z,78.80
2022-09-15T03:25:02.368Z,78.79
2022-09-15T03:28:10.566Z,78.74
2022-09-15T03:31:17.372Z,78.67
2022-09-15T03:34:22.340Z,78.66
2022-09-15T03:37:28.729Z,78.57
2022-09-15T03:40:35.913Z,78.55
2022-09-15T03:43:42.818Z,78.50
2022-09-15T03:46:48.018Z,78.46
2022-09-15T03:49:55.609Z,78.48
2022-09-15T03:53:01.475Z,78.49
2022-09-15T03:56:10.667Z,78.48
2022-09-15T03:59:16.970Z,78.52
2022-09-15T04:02:23.300Z,78.59
2022-09-15T04:05:28.811Z,78.66
2022-09-15T04:08:35.007Z,78.70
2022-09-15T04:11:40.823Z,78.65
2022-09-15T04:14:47.019Z,78.67
2022-09-15T04:17:52.420Z,78.75
2022-09-15T04:20:59.380Z,78.82
2022-09-15T04:24:05.339Z,78.87
2022-09-15T04:27:11.552Z,78.95
2022-09-15T04:30:17.560Z,79.04
2022-09-15T04:33:22.911Z,79.11
2022-09-15T04:36:38.507Z,79.15
2022-09-15T04:39:44.121Z,79.21
2022-09-15T04:42:49.281Z,79.29
2022-09-15T04:45:54.687Z,79.36
2022-09-15T04:49:00.633Z,79.44
2022-09-15T04:52:09.482Z,79.51
2022-09-15T04:55:18.691Z,79.56
2022-09-15T04:58:27.739Z,79.62
2022-09-15T05:01:38.857Z,79.72
2022-09-15T05:04:43.993Z,79.80
2022-09-15T05:07:49.961Z,79.86
2022-09-15T05:10:58.156Z,79.92
2022-09-15T05:14:05.357Z,79.95
2022-09-15T05:17:11.789Z,80.00
2022-09-15T05:20:30.878Z,80.02
2022-09-15T05:23:37.699Z,80.01
2022-09-15T05:26:44.416Z,80.02
2022-09-15T05:30:00.341Z,80.01
2022-09-15T05:32:59.057Z,80.01
2022-09-15T05:36:12.694Z,80.02
2022-09-15T05:39:17.876Z,80.07
2022-09-15T05:42:24.929Z,80.07
2022-09-15T05:45:32.753Z,80.07
2022-09-15T05:48:37.867Z,80.11
2022-09-15T05:51:43.797Z,80.17
2022-09-15T05:54:50.645Z,80.21
2022-09-15T05:57:57.651Z,80.25
2022-09-15T06:01:06.002Z,80.27
2022-09-15T06:04:13.466Z,80.30
2022-09-15T06:07:21.320Z,80.37
2022-09-15T06:10:27.510Z,80.34
2022-09-15T06:13:33.504Z,80.29
2022-09-15T06:16:39.683Z,80.23
2022-09-15T06:19:44.969Z,80.18
2022-09-15T06:22:49.612Z,80.07
2022-09-15T06:25:55.580Z,79.91
2022-09-15T06:29:17.946Z,79.80
2022-09-15T06:32:23.892Z,79.67
2022-09-15T06:35:28.505Z,79.60
2022-09-15T06:38:33.828Z,79.52
2022-09-15T06:41:58.795Z,79.46
2022-09-15T06:44:48.949Z,79.42
2022-09-15T06:48:20.206Z,79.37
2022-09-15T06:51:11.374Z,79.40
2022-09-15T06:54:18.803Z,79.37
2022-09-15T06:57:25.939Z,79.40
2022-09-15T07:00:42.225Z,79.45
2022-09-15T07:03:47.186Z,79.50
2022-09-15T07:06:54.327Z,79.58
2022-09-15T07:10:02.444Z,79.63
2022-09-15T07:13:19.607Z,79.65
2022-09-15T07:16:41.455Z,79.75
2022-09-15T07:19:53.981Z,79.79
2022-09-15T07:23:03.477Z,79.81
2022-09-15T07:26:10.461Z,79.85
2022-09-15T07:29:19.560Z,79.92
2022-09-15T07:32:30.229Z,79.97
2022-09-15T07:35:37.515Z,79.99
2022-09-15T07:38:50.841Z,80.03
2022-09-15T07:42:02.458Z,80.05
2022-09-15T07:45:10.069Z,80.04
2022-09-15T07:48:54.084Z,80.06
2022-09-15T07:52:23.089Z,80.10
2022-09-15T07:55:28.342Z,80.17
2022-09-15T07:58:35.075Z,80.15
2022-09-15T08:01:41.803Z,80.21
2022-09-15T08:04:49.478Z,80.24
2022-09-15T08:07:55.746Z,80.34
2022-09-15T08:11:18.277Z,80.37
2022-09-15T08:14:22.343Z,80.40
2022-09-15T08:17:29.811Z,80.48
2022-09-15T08:20:38.041Z,80.52
2022-09-15T08:23:44.916Z,80.55
2022-09-15T08:26:52.428Z,80.61
2022-09-15T08:29:58.379Z,80.68
2022-09-15T08:33:04.396Z,80.67
2022-09-15T08:36:10.567Z,80.67
2022-09-15T08:39:18.588Z,80.65
2022-09-15T08:42:34.338Z,80.59
2022-09-15T08:45:45.246Z,80.54
2022-09-15T08:49:02.035Z,80.45
2022-09-15T08:52:06.342Z,80.38
2022-09-15T08:55:15.050Z,80.36
2022-09-15T08:58:20.595Z,80.35
2022-09-15T09:02:07.490Z,80.36
2022-09-15T09:05:51.292Z,80.30
2022-09-15T09:09:14.151Z,80.27
2022-09-15T09:13:00.707Z,80.27
2022-09-15T09:16:36.166Z,80.33
2022-09-15T09:20:15.004Z,80.34
2022-09-15T09:23:31.016Z,80.32
2022-09-15T09:26:36.240Z,80.16
2022-09-15T09:29:48.993Z,80.12
2022-09-15T09:33:01.765Z,80.18
2022-09-15T09:36:08.923Z,80.02
2022-09-15T09:39:15.286Z,80.02
2022-09-15T09:42:25.785Z,79.96
2022-09-15T09:49:40.628Z,80.14
2022-09-15T09:52:53.432Z,80.19
2022-09-15T09:56:00.283Z,80.22
2022-09-15T10:02:32.221Z,80.29
2022-09-15T10:05:39.612Z,80.28
2022-09-15T10:08:46.277Z,80.24
2022-09-15T10:12:06.038Z,80.14
2022-09-15T10:15:22.747Z,80.20
2022-09-15T10:18:52.079Z,80.20
2022-09-15T10:21:55.743Z,80.25
2022-09-15T10:25:01.832Z,80.27
2022-09-15T10:28:30.654Z,80.33
2022-09-15T10:31:50.491Z,80.38
2022-09-15T10:34:58.903Z,80.29
2022-09-15T10:38:28.850Z,80.32
2022-09-15T10:41:47.571Z,80.17
2022-09-15T10:45:28.104Z,80.19
2022-09-15T10:48:49.055Z,80.36
2022-09-15T10:52:32.244Z,80.44
2022-09-15T10:55:53.027Z,80.34
2022-09-15T10:59:15.200Z,80.38
2022-09-15T11:02:35.817Z,80.48
2022-09-15T11:06:26.700Z,80.60
2022-09-15T11:09:56.665Z,80.67
2022-09-15T11:13:21.781Z,80.65
2022-09-15T11:16:56.215Z,80.64
2022-09-15T11:20:33.581Z,80.66
2022-09-15T11:24:06.117Z,80.63
2022-09-15T11:27:29.016Z,80.72
2022-09-15T11:30:39.479Z,80.76
2022-09-15T11:34:00.633Z,80.79
2022-09-15T11:37:33.762Z,80.94
2022-09-15T11:40:49.550Z,81.06
2022-09-15T11:44:17.933Z,81.15
2022-09-15T11:47:53.233Z,81.20
2022-09-15T11:51:10.661Z,81.26
2022-09-15T11:54:47.818Z,81.31
2022-09-15T11:58:49.407Z,81.38
2022-09-15T12:02:28.436Z,81.44
2022-09-15T12:05:51.646Z,81.56
2022-09-15T12:09:07.324Z,81.69
2022-09-15T12:12:17.629Z,81.80
2022-09-15T12:15:35.745Z,81.88
2022-09-15T12:19:07.964Z,81.90
2022-09-15T12:22:32.472Z,81.84
2022-09-15T12:26:32.285Z,81.95
2022-09-15T12:29:55.111Z,82.04
2022-09-15T12:33:02.661Z,82.18
2022-09-15T12:36:08.532Z,82.27
2022-09-15T12:39:15.609Z,82.28
2022-09-15T12:42:42.164Z,82.25
2022-09-15T12:45:52.824Z,82.24
2022-09-15T12:49:00.593Z,82.28
2022-09-15T12:52:06.177Z,82.31
2022-09-15T12:55:17.120Z,82.41
2022-09-15T12:58:24.875Z,82.49
2022-09-15T13:01:43.015Z,82.64
2022-09-15T13:05:00.270Z,82.73
2022-09-15T13:08:11.649Z,82.77
2022-09-15T13:11:32.051Z,82.82
2022-09-15T13:14:46.236Z,82.77
2022-09-15T13:17:54.590Z,82.83
2022-09-15T13:21:09.462Z,82.83
2022-09-15T13:24:16.394Z,82.83
2022-09-15T13:27:24.654Z,82.76
2022-09-15T13:30:43.883Z,82.74
2022-09-15T13:38:20.235Z,82.77
2022-09-15T13:41:49.548Z,82.81
2022-09-15T13:45:09.723Z,82.85
2022-09-15T13:48:40.384Z,82.90
2022-09-15T13:51:51.487Z,82.93
2022-09-15T13:56:02.810Z,82.96
2022-09-15T13:59:16.952Z,83.04
2022-09-15T14:02:23.963Z,83.09
2022-09-15T14:05:31.099Z,83.13
2022-09-15T14:08:46.244Z,83.18
2022-09-15T14:11:50.954Z,83.21
2022-09-15T14:15:06.331Z,83.26
2022-09-15T14:18:13.249Z,83.32
2022-09-15T14:21:20.389Z,83.35
2022-09-15T14:24:36.746Z,83.42
2022-09-15T14:27:46.891Z,83.43
2022-09-15T14:30:53.280Z,83.39
2022-09-15T14:34:00.185Z,83.46
2022-09-15T14:37:21.878Z,83.52
2022-09-15T14:40:39.666Z,83.57
2022-09-15T14:43:49.522Z,83.64
2022-09-15T14:46:55.516Z,83.67
2022-09-15T14:50:01.302Z,83.71
2022-09-15T14:53:26.065Z,83.75
2022-09-15T14:56:37.527Z,83.81
2022-09-15T14:59:52.019Z,83.85
2022-09-15T15:03:17.604Z,83.88
2022-09-15T15:06:32.336Z,83.91
2022-09-15T15:09:53.379Z,83.91
2022-09-15T15:13:11.531Z,83.97
2022-09-15T15:16:24.120Z,83.98
2022-09-15T15:19:50.752Z,84.03
2022-09-15T15:22:56.685Z,84.07
2022-09-15T15:26:02.934Z,84.17
2022-09-15T15:29:08.780Z,84.19
2022-09-15T15:32:22.234Z,84.22
2022-09-15T15:35:32.963Z,84.26
2022-09-15T15:38:38.713Z,84.29
2022-09-15T15:41:51.330Z,84.30
2022-09-15T15:45:20.423Z,84.37
2022-09-15T15:48:26.538Z,84.41
2022-09-15T15:51:33.307Z,84.43
2022-09-15T15:54:41.349Z,84.45
2022-09-15T15:57:53.445Z,84.51
2022-09-15T16:01:05.714Z,84.53
2022-09-15T16:04:11.883Z,84.56
2022-09-15T16:07:18.629Z,84.64
2022-09-15T16:10:30.756Z,84.66
2022-09-15T16:13:37.868Z,84.69
2022-09-15T16:16:45.775Z,84.72
2022-09-15T16:19:52.493Z,84.76
2022-09-15T16:22:57.795Z,84.83
2022-09-15T16:26:14.643Z,84.88
2022-09-15T16:29:21.272Z,84.92
2022-09-15T16:32:33.348Z,84.95
2022-09-15T16:35:51.474Z,84.99
2022-09-15T16:38:58.359Z,85.05
2022-09-15T16:42:04.580Z,85.08
2022-09-15T16:45:12.071Z,85.13
2022-09-15T16:48:18.424Z,85.16
2022-09-15T16:51:31.438Z,85.17
2022-09-15T16:54:36.164Z,85.19
2022-09-15T16:57:42.222Z,85.23
2022-09-15T17:00:51.567Z,85.25
2022-09-15T17:03:57.119Z,85.24
2022-09-15T17:07:02.670Z,85.24
2022-09-15T17:10:09.615Z,85.26
2022-09-15T17:13:16.672Z,85.29
2022-09-15T17:16:24.059Z,85.30
2022-09-15T17:19:31.768Z,85.34
2022-09-15T17:22:38.972Z,85.39
2022-09-15T17:25:52.797Z,85.39
2022-09-15T17:28:59.047Z,85.41
2022-09-15T17:32:07.620Z,85.47
2022-09-15T17:35:16.244Z,85.53
2022-09-15T17:38:21.500Z,85.59
2022-09-15T17:41:32.640Z,85.65
2022-09-15T17:44:37.828Z,85.71
2022-09-15T17:47:43.517Z,85.75
2022-09-15T17:50:50.381Z,85.80
2022-09-15T17:53:55.728Z,85.85
2022-09-15T17:57:01.200Z,85.90
2022-09-15T18:00:07.032Z,85.91
2022-09-15T18:03:23.065Z,85.92
2022-09-15T18:06:28.975Z,85.94
2022-09-15T18:09:34.851Z,85.96
2022-09-15T18:12:41.797Z,86.00
2022-09-15T18:15:51.109Z,86.03
2022-09-15T18:18:58.411Z,86.03
2022-09-15T18:22:06.548Z,86.08
2022-09-15T18:25:12.825Z,86.15
2022-09-15T18:28:21.528Z,86.21
2022-09-15T18:31:29.506Z,86.26
2022-09-15T18:34:37.306Z,86.32
2022-09-15T18:37:43.183Z,86.36
2022-09-15T18:40:50.068Z,86.37
2022-09-15T18:43:58.059Z,86.41
2022-09-15T18:47:02.952Z,86.47
2022-09-15T18:50:10.250Z,86.52
2022-09-15T18:53:15.775Z,86.57
2022-09-15T18:56:29.783Z,86.59
2022-09-15T18:59:35.453Z,86.63
2022-09-15T19:02:41.574Z,86.67
2022-09-15T19:05:47.300Z,86.72
2022-09-15T19:08:53.225Z,86.77
2022-09-15T19:11:58.432Z,86.80
2022-09-15T19:15:04.293Z,86.83
2022-09-15T19:18:10.455Z,86.85
2022-09-15T19:21:27.199Z,86.88
2022-09-15T19:24:32.928Z,86.95
2022-09-15T19:27:39.504Z,86.98
2022-09-15T19:30:46.621Z,87.00
2022-09-15T19:33:54.126Z,87.04
2022-09-15T19:37:01.941Z,87.11
2022-09-15T19:40:09.971Z,87.18
2022-09-15T19:43:17.966Z,87.22
2022-09-15T19:46:34.174Z,87.26
2022-09-15T19:49:40.465Z,87.31
2022-09-15T19:52:46.314Z,87.34
2022-09-15T19:55:52.334Z,87.38
2022-09-15T19:58:58.981Z,87.40
2022-09-15T20:02:05.273Z,87.45
2022-09-15T20:05:11.857Z,87.50
2022-09-15T20:08:19.959Z,87.54
2022-09-15T20:11:26.529Z,87.53
2022-09-15T20:14:33.002Z,87.56
2022-09-15T20:17:39.487Z,87.61
2022-09-15T20:20:46.199Z,87.61
2022-09-15T20:23:55.289Z,87.64
2022-09-15T20:27:02.879Z,87.70
2022-09-15T20:30:09.793Z,87.72
2022-09-15T20:33:16.235Z,87.73
2022-09-15T20:36:24.452Z,87.80
2022-09-15T20:39:31.436Z,87.85
2022-09-15T20:42:38.154Z,87.86
2022-09-15T20:45:45.247Z,87.90
2022-09-15T20:48:51.087Z,87.91
2022-09-15T20:51:58.432Z,87.95
2022-09-15T20:55:03.724Z,87.97
2022-09-15T20:58:09.654Z,88.01
2022-09-15T21:01:27.211Z,88.06
2022-09-15T21:04:33.220Z,88.10
2022-09-15T21:07:39.428Z,88.09
2022-09-15T21:10:47.380Z,88.08
2022-09-15T21:13:55.479Z,88.00
2022-09-15T21:17:02.863Z,87.98
2022-09-15T21:20:08.133Z,88.08
2022-09-15T21:23:14.027Z,88.17
2022-09-15T21:26:22.977Z,88.24
2022-09-15T21:29:30.385Z,88.29
2022-09-15T21:32:37.805Z,88.34
2022-09-15T21:35:44.042Z,88.37
2022-09-15T21:38:52.261Z,88.39
2022-09-15T21:42:01.696Z,88.41
2022-09-15T21:45:08.415Z,88.44
2022-09-15T21:48:14.509Z,88.41
2022-09-15T21:51:24.656Z,88.39
2022-09-15T21:54:29.347Z,88.37
2022-09-15T21:57:35.829Z,88.34
2022-09-15T22:00:41.590Z,88.38
2022-09-15T22:03:49.652Z,88.32
2022-09-15T22:06:56.655Z,88.31
2022-09-15T22:10:04.209Z,88.31
2022-09-15T22:13:10.822Z,88.17
2022-09-15T22:16:20.439Z,88.03
2022-09-15T22:19:26.687Z,88.09
2022-09-15T22:22:32.423Z,87.99
2022-09-15T22:25:40.511Z,87.84
2022-09-15T22:28:46.087Z,87.76
2022-09-15T22:31:52.025Z,87.74
2022-09-15T22:34:57.832Z,87.77
2022-09-15T22:38:03.767Z,87.72
2022-09-15T22:41:09.962Z,87.80
2022-09-15T22:44:15.882Z,87.87
2022-09-15T22:47:24.225Z,88.03
2022-09-15T22:50:30.486Z,87.92
2022-09-15T22:53:36.859Z,87.96
2022-09-15T22:56:43.048Z,88.11
2022-09-15T22:59:49.363Z,88.15
2022-09-15T23:02:55.873Z,88.12
2022-09-15T23:06:03.664Z,88.18
2022-09-15T23:09:12.081Z,88.24
2022-09-15T23:12:18.104Z,88.26
2022-09-15T23:15:26.309Z,88.40
2022-09-15T23:18:33.253Z,88.42
2022-09-15T23:21:39.238Z,88.48
2022-09-15T23:24:45.009Z,88.60
2022-09-15T23:27:49.949Z,88.67
2022-09-15T23:30:56.598Z,88.67
2022-09-15T23:34:01.985Z,88.72
2022-09-15T23:37:07.164Z,88.79
2022-09-15T23:40:13.447Z,88.86
2022-09-15T23:43:19.491Z,88.78
2022-09-15T23:46:25.504Z,88.59
2022-09-15T23:49:31.874Z,88.59
2022-09-15T23:52:38.362Z,88.53
2022-09-15T23:55:43.835Z,88.54
2022-09-15T23:58:49.598Z,88.66
